Time;durP1;ratioP1;P1;durP2;ratioP2;P2;SDS_P1;SDS_P2;PMS_P1;PMS_P2;Temp;Humidity;BMP_temperature;BMP_pressure;BME280_temperature;BME280_humidity;BME280_pressure;Samples;Min_cycle;Max_cycle;Signal;HPM_P1;HPM_P2
2021/11/11 00:01:09;;;;;;;25.00;17.50;;;8.80;55.90;;;;;;5003197;28;20210;-46
2021/11/11 00:03:34;;;;;;;31.53;19.60;;;8.80;55.90;;;;;;5005213;28;20198;-48
2021/11/11 00:06:00;;;;;;;31.40;19.73;;;8.80;55.70;;;;;;5006861;28;20201;-47
2021/11/11 00:08:26;;;;;;;29.70;19.07;;;8.70;56.00;;;;;;5005575;28;20234;-45
2021/11/11 00:10:51;;;;;;;21.27;17.60;;;8.70;56.40;;;;;;5006512;28;20201;-45
2021/11/11 00:13:19;;;;;;;24.37;15.97;;;8.70;56.30;;;;;;5005134;28;20704;-46
2021/11/11 00:15:47;;;;;;;23.30;16.63;;;8.70;56.30;;;;;;5009687;28;20560;-49
2021/11/11 00:18:12;;;;;;;22.40;15.40;;;8.70;56.30;;;;;;5005240;28;20599;-49
2021/11/11 00:20:38;;;;;;;20.60;15.30;;;8.70;56.30;;;;;;5002234;28;20551;-48
2021/11/11 00:23:04;;;;;;;21.47;15.07;;;8.70;56.30;;;;;;5003587;28;21974;-45
2021/11/11 00:25:30;;;;;;;21.13;14.33;;;8.70;56.20;;;;;;5000015;28;20712;-45
2021/11/11 00:27:56;;;;;;;18.50;15.20;;;8.70;56.10;;;;;;5003481;28;20190;-47
2021/11/11 00:30:22;;;;;;;22.23;12.80;;;8.70;55.90;;;;;;5000594;28;20193;-47
2021/11/11 00:32:50;;;;;;;21.13;15.07;;;8.70;55.80;;;;;;5003834;28;20441;-46
2021/11/11 00:35:20;;;;;;;19.07;13.80;;;8.70;55.90;;;;;;5007469;28;20551;-49
2021/11/11 00:37:46;;;;;;;18.57;14.13;;;8.70;56.00;;;;;;5007391;28;21244;-45
2021/11/11 00:40:12;;;;;;;29.50;17.00;;;8.70;56.10;;;;;;5007416;28;20451;-49
2021/11/11 00:42:38;;;;;;;31.23;16.90;;;8.60;56.30;;;;;;5006094;28;20190;-45
2021/11/11 00:45:05;;;;;;;28.03;16.60;;;8.60;56.30;;;;;;5009317;28;20444;-50
2021/11/11 00:47:32;;;;;;;33.77;18.20;;;8.60;57.10;;;;;;5002516;28;20448;-49
2021/11/11 00:49:58;;;;;;;24.33;17.83;;;8.60;57.00;;;;;;5005344;28;20451;-46
2021/11/11 00:52:24;;;;;;;36.23;18.20;;;8.50;57.40;;;;;;5009463;28;21058;-48
2021/11/11 00:54:50;;;;;;;30.23;17.63;;;8.50;57.60;;;;;;5004314;28;20500;-44
2021/11/11 00:57:15;;;;;;;31.60;17.90;;;8.50;57.60;;;;;;5002144;28;20531;-45
2021/11/11 00:59:42;;;;;;;27.10;15.87;;;8.50;57.60;;;;;;5003032;28;20240;-46
2021/11/11 01:02:09;;;;;;;28.30;16.70;;;8.50;57.60;;;;;;5007048;28;20263;-47
2021/11/11 01:04:37;;;;;;;21.17;15.97;;;8.40;57.60;;;;;;5002509;28;20453;-44
2021/11/11 01:07:04;;;;;;;28.57;16.80;;;8.40;57.60;;;;;;4999896;28;20463;-47
2021/11/11 01:09:30;;;;;;;30.83;17.00;;;8.40;57.80;;;;;;4950064;28;1080107;-46
2021/11/11 01:11:57;;;;;;;30.47;17.63;;;8.30;58.00;;;;;;5002933;28;20214;-46
2021/11/11 01:14:23;;;;;;;25.93;18.03;;;8.30;58.10;;;;;;5004332;28;21659;-46
2021/11/11 01:16:49;;;;;;;27.13;17.97;;;8.40;58.10;;;;;;5003868;28;20440;-46
2021/11/11 01:19:15;;;;;;;34.20;17.10;;;8.40;58.00;;;;;;5004288;28;20316;-47
2021/11/11 01:21:41;;;;;;;40.07;17.90;;;8.30;57.80;;;;;;5000255;28;20436;-46
2021/11/11 01:24:07;;;;;;;34.77;15.63;;;8.20;57.60;;;;;;5005569;28;20248;-48
2021/11/11 01:26:32;;;;;;;33.90;17.17;;;8.10;57.70;;;;;;5003808;28;20194;-46
2021/11/11 01:28:59;;;;;;;31.67;18.63;;;8.10;58.10;;;;;;4987647;28;20441;-45
2021/11/11 01:31:24;;;;;;;30.50;17.73;;;8.20;58.20;;;;;;5004598;28;20654;-46
2021/11/11 01:33:50;;;;;;;35.23;17.40;;;8.10;58.10;;;;;;5002549;28;20467;-45
2021/11/11 01:36:16;;;;;;;30.33;17.10;;;8.10;58.40;;;;;;5004178;28;20288;-46
2021/11/11 01:38:41;;;;;;;26.73;17.70;;;8.10;58.30;;;;;;5003395;28;20240;-48
2021/11/11 01:41:07;;;;;;;39.57;18.03;;;8.10;58.30;;;;;;5004590;28;20293;-45
2021/11/11 01:43:33;;;;;;;32.20;18.23;;;8.10;58.40;;;;;;5006863;28;20198;-50
2021/11/11 01:45:59;;;;;;;32.30;18.30;;;8.10;58.40;;;;;;5005743;28;20186;-45
2021/11/11 01:48:26;;;;;;;46.40;16.83;;;8.10;58.60;;;;;;5001910;28;20456;-45
2021/11/11 01:50:53;;;;;;;46.27;17.60;;;8.10;58.70;;;;;;5001280;28;21329;-45
2021/11/11 01:53:19;;;;;;;30.70;17.73;;;8.10;58.70;;;;;;5005458;28;20441;-47
2021/11/11 01:55:47;;;;;;;30.60;16.37;;;8.00;58.60;;;;;;5000485;28;20481;-48
2021/11/11 01:58:14;;;;;;;35.97;16.60;;;8.00;58.60;;;;;;4984864;28;21308;-46
2021/11/11 02:00:48;;;;;;;39.40;16.50;;;8.00;58.70;;;;;;4998683;28;20440;-46
2021/11/11 02:03:15;;;;;;;41.57;17.07;;;7.70;59.30;;;;;;5003674;28;20441;-47
2021/11/11 02:05:43;;;;;;;36.60;17.43;;;7.60;60.20;;;;;;5004101;28;20844;-47
2021/11/11 02:08:09;;;;;;;47.40;17.27;;;7.70;60.50;;;;;;5004954;28;20531;-46
2021/11/11 02:10:36;;;;;;;33.77;16.57;;;7.80;60.30;;;;;;5002738;28;20445;-45
2021/11/11 02:13:04;;;;;;;33.73;15.67;;;7.80;60.50;;;;;;5002445;28;20236;-47
2021/11/11 02:15:30;;;;;;;37.03;17.17;;;7.80;60.50;;;;;;5004399;28;20536;-47
2021/11/11 02:17:56;;;;;;;34.93;16.40;;;7.80;60.50;;;;;;5004000;28;20485;-46
2021/11/11 02:20:35;;;;;;;23.07;15.43;;;7.90;60.20;;;;;;5005015;28;20451;-46
2021/11/11 02:23:03;;;;;;;28.20;15.50;;;8.00;59.80;;;;;;5006413;28;20455;-48
2021/11/11 02:25:29;;;;;;;31.53;15.37;;;8.00;59.50;;;;;;5006310;28;20804;-47
2021/11/11 02:28:04;;;;;;;22.37;15.03;;;8.00;59.50;;;;;;5011921;28;20999;-46
2021/11/11 02:30:31;;;;;;;44.43;16.20;;;8.00;59.50;;;;;;5006086;28;20448;-45
2021/11/11 02:32:57;;;;;;;36.37;15.93;;;7.90;59.30;;;;;;5004411;28;20519;-45
2021/11/11 02:35:23;;;;;;;36.10;15.17;;;7.70;59.70;;;;;;5007494;28;21285;-45
2021/11/11 02:37:50;;;;;;;36.93;15.90;;;7.20;60.50;;;;;;5005383;28;20469;-45
2021/11/11 02:40:25;;;;;;;33.43;14.70;;;7.10;61.60;;;;;;5005090;28;20432;-45
2021/11/11 02:42:52;;;;;;;19.00;13.80;;;6.70;63.20;;;;;;4988587;28;20475;-45
2021/11/11 02:45:22;;;;;;;83.30;17.53;;;6.70;64.50;;;;;;5004531;28;20463;-46
2021/11/11 02:47:48;;;;;;;27.27;14.40;;;6.70;64.80;;;;;;5005267;28;20445;-45
2021/11/11 02:50:15;;;;;;;56.13;15.90;;;6.90;64.90;;;;;;5006170;28;20444;-45
2021/11/11 02:52:45;;;;;;;23.10;14.57;;;7.00;64.70;;;;;;4988731;28;21879;-45
2021/11/11 02:55:12;;;;;;;21.10;12.97;;;7.10;64.90;;;;;;5006031;28;20998;-44
2021/11/11 02:57:40;;;;;;;24.73;14.00;;;7.20;64.60;;;;;;5004798;28;20440;-46
2021/11/11 03:00:15;;;;;;;36.90;13.27;;;7.40;64.40;;;;;;5004677;28;20932;-44
2021/11/11 03:02:44;;;;;;;34.63;12.90;;;7.50;63.90;;;;;;5003876;28;20444;-44
2021/11/11 03:05:19;;;;;;;23.20;12.30;;;7.50;63.40;;;;;;5005698;28;20447;-45
2021/11/11 03:07:45;;;;;;;24.27;13.17;;;7.50;63.20;;;;;;5005129;28;20910;-48
2021/11/11 03:10:15;;;;;;;28.83;14.57;;;7.60;62.90;;;;;;5010292;28;20532;-48
2021/11/11 03:12:41;;;;;;;23.77;13.47;;;7.30;63.40;;;;;;5001531;28;20194;-47
2021/11/11 03:15:08;;;;;;;33.53;13.50;;;7.40;64.00;;;;;;5004985;28;20437;-45
2021/11/11 03:17:34;;;;;;;23.43;12.00;;;7.30;64.00;;;;;;5009672;28;20448;-47
2021/11/11 03:20:00;;;;;;;27.23;12.70;;;7.30;64.30;;;;;;5004083;28;20955;-48
2021/11/11 03:22:26;;;;;;;12.80;10.77;;;6.90;64.70;;;;;;5009979;28;20360;-50
2021/11/11 03:24:52;;;;;;;29.43;13.27;;;6.90;65.40;;;;;;5004667;28;20525;-47
2021/11/11 03:27:19;;;;;;;61.40;13.70;;;6.80;65.90;;;;;;5006178;28;20190;-48
2021/11/11 03:29:47;;;;;;;40.50;12.43;;;6.70;66.20;;;;;;5007811;28;20487;-45
2021/11/11 03:32:13;;;;;;;28.30;13.70;;;6.40;67.50;;;;;;5006058;28;20445;-46
2021/11/11 03:34:40;;;;;;;21.63;11.97;;;6.20;68.20;;;;;;5002023;28;20471;-48
2021/11/11 03:37:08;;;;;;;56.17;13.90;;;6.10;69.70;;;;;;5008189;28;20455;-45
2021/11/11 03:39:35;;;;;;;24.33;13.23;;;6.00;70.10;;;;;;4987925;28;20496;-47
2021/11/11 03:42:00;;;;;;;47.40;12.90;;;6.00;71.10;;;;;;5002021;28;20583;-45
2021/11/11 03:44:26;;;;;;;66.60;15.17;;;6.00;70.70;;;;;;5003528;28;20465;-48
2021/11/11 03:46:57;;;;;;;25.93;11.70;;;5.90;71.30;;;;;;5007346;28;20336;-47
2021/11/11 03:49:23;;;;;;;15.33;11.77;;;6.00;72.50;;;;;;5007709;28;20209;-48
2021/11/11 03:51:49;;;;;;;37.20;13.37;;;6.10;70.90;;;;;;5003869;28;20460;-46
2021/11/11 03:54:17;;;;;;;46.83;13.07;;;6.40;70.70;;;;;;5005351;28;20660;-47
2021/11/11 03:56:43;;;;;;;43.37;12.20;;;6.50;69.80;;;;;;5003836;28;20968;-47
2021/11/11 03:59:10;;;;;;;33.10;13.70;;;6.50;69.50;;;;;;5006354;28;20591;-48
2021/11/11 04:01:37;;;;;;;15.20;12.00;;;6.60;69.10;;;;;;5001986;28;20499;-50
2021/11/11 04:04:04;;;;;;;18.10;11.50;;;6.70;68.80;;;;;;5004468;28;20524;-46
2021/11/11 04:06:30;;;;;;;21.20;11.70;;;6.80;68.40;;;;;;5002545;28;20498;-47
2021/11/11 04:08:59;;;;;;;25.83;11.30;;;6.80;67.60;;;;;;5003384;28;20496;-47
2021/11/11 04:11:25;;;;;;;14.77;11.30;;;6.80;67.70;;;;;;5002342;28;20441;-48
2021/11/11 04:13:51;;;;;;;15.53;12.70;;;6.80;67.70;;;;;;5008505;28;20499;-48
2021/11/11 04:16:16;;;;;;;22.90;12.03;;;7.00;68.00;;;;;;5005372;28;20503;-47
2021/11/11 04:18:42;;;;;;;29.37;11.77;;;6.90;67.00;;;;;;5006182;28;20286;-46
2021/11/11 04:21:08;;;;;;;14.17;11.20;;;7.00;67.10;;;;;;5004828;28;20276;-46
2021/11/11 04:23:33;;;;;;;23.13;11.70;;;7.20;66.50;;;;;;5006486;28;20289;-48
2021/11/11 04:26:07;;;;;;;23.00;10.77;;;7.10;65.60;;;;;;5008942;28;20536;-48
2021/11/11 04:28:37;;;;;;;35.50;11.33;;;6.80;66.50;;;;;;5002344;28;20198;-46
2021/11/11 04:31:07;;;;;;;25.60;11.07;;;6.90;66.90;;;;;;5002229;28;20986;-47
2021/11/11 04:33:36;;;;;;;29.97;12.23;;;6.50;67.50;;;;;;5006965;28;20917;-47
2021/11/11 04:36:14;;;;;;;55.87;11.73;;;6.40;68.50;;;;;;5003484;28;20456;-47
2021/11/11 04:41:40;;;;;;;36.20;17.00;;;6.50;68.00;;;;;;5004266;28;20556;-46
2021/11/11 04:49:36;;;;;;;13.23;10.90;;;7.00;66.80;;;;;;5003907;28;20449;-47
2021/11/11 05:03:43;;;;;;;24.53;12.80;;;7.60;65.40;;;;;;5000169;28;20445;-46
2021/11/11 05:05:37;;;;;;;16.17;11.03;;;7.70;64.90;;;;;;4985406;28;20560;-46
2021/11/11 05:08:03;;;;;;;28.03;12.50;;;7.80;64.50;;;;;;4989919;28;20495;-47
2021/11/11 05:10:28;;;;;;;15.60;11.90;;;7.80;64.20;;;;;;5009403;28;20467;-48
2021/11/11 05:12:55;;;;;;;38.87;13.43;;;7.90;63.90;;;;;;5009994;28;20485;-48
2021/11/11 05:15:22;;;;;;;98.07;15.30;;;7.80;63.40;;;;;;5002295;28;20224;-46
2021/11/11 05:17:47;;;;;;;92.23;13.93;;;7.70;63.20;;;;;;5008485;28;20448;-48
2021/11/11 05:20:19;;;;;;;94.17;15.57;;;7.10;63.50;;;;;;5003794;28;20475;-46
2021/11/11 05:22:46;;;;;;;50.47;14.30;;;7.10;65.50;;;;;;5003025;28;20984;-46
2021/11/11 05:25:14;;;;;;;92.73;15.97;;;7.10;66.00;;;;;;5008324;28;20469;-46
2021/11/11 05:27:42;;;;;;;34.23;12.50;;;7.20;65.90;;;;;;5004572;28;20441;-47
2021/11/11 05:30:08;;;;;;;30.93;12.80;;;7.50;65.70;;;;;;5001711;28;20448;-47
2021/11/11 05:32:35;;;;;;;20.83;12.97;;;7.60;65.30;;;;;;5000827;28;20503;-47
2021/11/11 05:35:02;;;;;;;105.40;14.70;;;7.70;65.00;;;;;;5004412;28;20449;-48
2021/11/11 05:37:28;;;;;;;61.33;12.63;;;7.60;64.30;;;;;;5001327;28;20445;-46
2021/11/11 05:39:54;;;;;;;19.33;12.30;;;7.50;64.60;;;;;;4986774;28;22334;-47
2021/11/11 05:42:20;;;;;;;39.53;12.20;;;7.10;65.30;;;;;;5003451;28;21072;-50
2021/11/11 05:44:46;;;;;;;15.07;11.07;;;7.20;66.20;;;;;;5002782;28;20692;-47
2021/11/11 05:47:12;;;;;;;119.17;15.73;;;7.40;66.10;;;;;;5003563;28;20974;-46
2021/11/11 05:49:37;;;;;;;68.80;14.13;;;7.20;64.70;;;;;;5002638;28;20539;-46
2021/11/11 05:52:03;;;;;;;33.07;11.90;;;6.80;65.80;;;;;;5004804;28;20228;-47
2021/11/11 05:54:29;;;;;;;42.30;12.80;;;6.60;68.10;;;;;;5005928;28;20194;-46
2021/11/11 05:56:55;;;;;;;57.80;13.67;;;6.60;68.60;;;;;;5005374;28;20437;-46
2021/11/11 05:59:20;;;;;;;23.73;13.07;;;6.80;68.30;;;;;;5005033;28;20217;-46
2021/11/11 06:01:46;;;;;;;37.73;13.03;;;6.80;67.70;;;;;;5006571;28;20196;-46
2021/11/11 06:04:12;;;;;;;32.67;14.13;;;6.60;68.00;;;;;;5008896;28;20198;-48
2021/11/11 06:06:37;;;;;;;20.53;12.73;;;6.70;69.00;;;;;;5004701;28;20222;-46
2021/11/11 06:09:03;;;;;;;26.07;15.43;;;6.80;68.50;;;;;;5006984;28;20689;-46
2021/11/11 06:11:29;;;;;;;52.60;17.13;;;7.20;70.10;;;;;;5006021;28;20186;-46
2021/11/11 06:13:54;;;;;;;17.67;13.10;;;7.70;71.10;;;;;;5007188;28;20810;-47
2021/11/11 06:16:21;;;;;;;34.13;13.60;;;8.10;69.90;;;;;;5007431;28;20324;-50
2021/11/11 06:18:47;;;;;;;15.50;11.67;;;8.40;68.90;;;;;;5007594;28;20233;-47
2021/11/11 06:21:13;;;;;;;25.77;12.93;;;8.70;68.00;;;;;;5007093;28;20432;-48
2021/11/11 06:23:39;;;;;;;19.13;13.63;;;8.90;67.40;;;;;;5007832;28;20201;-47
2021/11/11 06:26:05;;;;;;;30.73;13.13;;;9.00;64.80;;;;;;5008002;28;20441;-48
2021/11/11 06:28:31;;;;;;;37.03;13.77;;;9.10;65.10;;;;;;5009953;28;20483;-47
2021/11/11 06:30:57;;;;;;;15.57;12.57;;;9.20;63.30;;;;;;5008668;28;20495;-50
2021/11/11 06:33:23;;;;;;;140.03;17.40;;;9.20;61.90;;;;;;5007911;28;20198;-46
2021/11/11 06:35:49;;;;;;;18.20;12.90;;;9.20;60.00;;;;;;5008701;28;20194;-48
2021/11/11 06:38:15;;;;;;;14.17;12.20;;;9.00;60.00;;;;;;5010715;28;20485;-45
2021/11/11 06:40:41;;;;;;;13.97;11.90;;;9.10;60.40;;;;;;5005322;28;20232;-46
2021/11/11 06:43:07;;;;;;;15.63;12.13;;;9.30;60.00;;;;;;5004403;28;20527;-46
2021/11/11 06:45:41;;;;;;;13.43;11.67;;;9.40;60.10;;;;;;5008975;28;20209;-45
2021/11/11 06:48:08;;;;;;;35.33;12.30;;;9.50;59.80;;;;;;5009069;28;21228;-50
2021/11/11 06:50:34;;;;;;;16.17;11.80;;;9.50;59.10;;;;;;5007695;28;20441;-45
2021/11/11 06:52:59;;;;;;;19.83;14.00;;;9.70;59.10;;;;;;5004365;28;20457;-48
2021/11/11 06:55:26;;;;;;;30.47;13.37;;;9.70;58.90;;;;;;5002973;28;20194;-46
2021/11/11 06:57:52;;;;;;;17.33;12.20;;;9.60;58.10;;;;;;5007186;28;20472;-47
2021/11/11 07:00:18;;;;;;;22.00;13.40;;;9.40;58.80;;;;;;5008599;28;20948;-48
2021/11/11 07:02:44;;;;;;;43.63;12.70;;;9.20;58.80;;;;;;4998629;28;20230;-46
2021/11/11 07:05:10;;;;;;;18.83;11.60;;;9.30;59.10;;;;;;5011695;28;20491;-46
2021/11/11 07:07:35;;;;;;;22.47;12.23;;;9.20;58.30;;;;;;5012622;28;20198;-44
2021/11/11 07:10:02;;;;;;;21.43;11.33;;;9.00;58.20;;;;;;5012307;28;20787;-46
2021/11/11 07:12:27;;;;;;;50.60;13.20;;;8.80;58.30;;;;;;5010316;28;20198;-45
2021/11/11 07:14:53;;;;;;;16.60;11.50;;;8.50;59.00;;;;;;5010538;28;21092;-44
2021/11/11 07:17:19;;;;;;;34.00;13.13;;;8.20;60.30;;;;;;5010939;28;20198;-45
2021/11/11 07:19:44;;;;;;;30.07;13.80;;;8.20;60.50;;;;;;5011669;28;20748;-47
2021/11/11 07:22:10;;;;;;;19.10;13.60;;;7.90;60.80;;;;;;5008507;28;20201;-45
2021/11/11 07:24:35;;;;;;;25.87;13.70;;;7.90;62.20;;;;;;5011946;28;20193;-46
2021/11/11 07:27:01;;;;;;;18.03;13.87;;;8.10;62.50;;;;;;5007056;28;20206;-45
2021/11/11 07:29:27;;;;;;;21.43;14.13;;;8.20;61.50;;;;;;5008996;28;20186;-44
2021/11/11 07:31:54;;;;;;;44.53;13.07;;;8.40;61.40;;;;;;5007535;28;20226;-46
2021/11/11 07:34:20;;;;;;;20.97;13.93;;;8.40;61.10;;;;;;5010974;28;20429;-45
2021/11/11 07:36:46;;;;;;;25.70;14.77;;;8.40;61.50;;;;;;5011722;28;20421;-46
2021/11/11 07:39:13;;;;;;;30.40;14.23;;;8.50;61.60;;;;;;5012352;28;20492;-45
2021/11/11 07:41:39;;;;;;;28.00;13.80;;;8.50;61.20;;;;;;5011641;28;20198;-48
2021/11/11 07:44:06;;;;;;;20.37;15.10;;;8.50;61.20;;;;;;5012401;28;20775;-45
2021/11/11 07:46:33;;;;;;;20.00;13.87;;;8.60;61.40;;;;;;5011745;28;20444;-47
2021/11/11 07:49:00;;;;;;;14.63;12.97;;;8.60;61.40;;;;;;5011075;28;20436;-45
2021/11/11 07:51:26;;;;;;;16.03;14.23;;;8.70;61.40;;;;;;5011241;28;20436;-46
2021/11/11 07:53:52;;;;;;;19.23;15.70;;;8.70;61.20;;;;;;5012360;28;20482;-45
2021/11/11 07:56:17;;;;;;;104.40;38.27;;;8.80;61.30;;;;;;5011428;28;20812;-44
2021/11/11 07:58:43;;;;;;;107.27;39.67;;;8.80;61.10;;;;;;5012080;28;20233;-45
2021/11/11 08:01:09;;;;;;;30.80;18.77;;;8.80;61.00;;;;;;5011186;28;20249;-45
2021/11/11 08:03:34;;;;;;;26.13;13.23;;;8.80;60.90;;;;;;5012146;28;20181;-46
2021/11/11 08:06:00;;;;;;;25.23;13.20;;;8.80;60.80;;;;;;5011852;28;20676;-45
2021/11/11 08:08:25;;;;;;;20.40;14.03;;;8.70;60.90;;;;;;5011637;28;20238;-47
2021/11/11 08:10:51;;;;;;;23.27;12.57;;;8.70;61.20;;;;;;5011284;28;20239;-46
2021/11/11 08:13:17;;;;;;;20.67;13.93;;;8.60;61.00;;;;;;5011654;28;20559;-46
2021/11/11 08:15:42;;;;;;;39.83;14.17;;;8.70;61.50;;;;;;5009160;28;20212;-46
2021/11/11 08:18:08;;;;;;;31.10;13.00;;;8.70;61.80;;;;;;5011795;28;20379;-45
2021/11/11 08:20:34;;;;;;;23.53;14.13;;;8.70;61.50;;;;;;5011191;28;20264;-45
2021/11/11 08:23:00;;;;;;;25.63;13.90;;;8.80;61.60;;;;;;5011760;28;20527;-45
2021/11/11 08:25:26;;;;;;;14.03;11.83;;;8.70;61.10;;;;;;5011235;28;20239;-45
2021/11/11 08:27:53;;;;;;;28.00;13.70;;;8.70;61.20;;;;;;5011905;28;20499;-45
2021/11/11 08:30:19;;;;;;;18.20;12.30;;;8.80;61.30;;;;;;5010883;28;20661;-47
2021/11/11 08:32:47;;;;;;;20.50;14.70;;;8.70;61.50;;;;;;5011304;28;20508;-45
2021/11/11 08:35:14;;;;;;;17.73;14.10;;;8.80;61.30;;;;;;5010803;28;20433;-45
2021/11/11 08:37:41;;;;;;;28.87;14.13;;;8.90;61.40;;;;;;5011581;28;20429;-46
2021/11/11 08:40:07;;;;;;;25.97;14.00;;;9.00;61.40;;;;;;5010891;28;20489;-45
2021/11/11 08:42:33;;;;;;;25.30;13.60;;;9.00;61.00;;;;;;5009500;28;20436;-46
2021/11/11 08:44:59;;;;;;;19.83;14.57;;;9.00;60.80;;;;;;5011327;28;20429;-46
2021/11/11 08:47:25;;;;;;;16.37;14.57;;;9.10;60.30;;;;;;5011142;28;20675;-46
2021/11/11 08:49:53;;;;;;;21.47;14.40;;;9.10;60.40;;;;;;5011424;28;20413;-45
2021/11/11 08:52:19;;;;;;;23.47;14.80;;;9.10;60.60;;;;;;5010451;28;20197;-45
2021/11/11 08:54:45;;;;;;;19.20;14.67;;;9.10;60.60;;;;;;5011437;28;20425;-45
2021/11/11 08:57:11;;;;;;;19.53;15.70;;;9.10;61.10;;;;;;5010688;28;20841;-44
2021/11/11 08:59:39;;;;;;;55.97;15.40;;;9.10;61.30;;;;;;5011398;28;20956;-45
2021/11/11 09:02:04;;;;;;;21.40;14.80;;;9.00;60.90;;;;;;5010068;28;20202;-45
2021/11/11 09:04:30;;;;;;;19.50;15.23;;;9.00;61.10;;;;;;5011283;28;20459;-46
2021/11/11 09:06:58;;;;;;;22.80;16.20;;;9.10;61.30;;;;;;5010579;28;20745;-45
2021/11/11 09:09:24;;;;;;;25.50;16.20;;;9.20;61.20;;;;;;5009306;28;20269;-45
2021/11/11 09:11:50;;;;;;;24.77;15.60;;;9.30;61.40;;;;;;5009997;28;20872;-45
2021/11/11 09:14:16;;;;;;;19.73;15.60;;;9.30;61.40;;;;;;5010932;28;20194;-45
2021/11/11 09:16:42;;;;;;;25.00;19.37;;;9.30;61.20;;;;;;5010439;28;20204;-45
2021/11/11 09:19:09;;;;;;;27.53;14.87;;;9.40;61.10;;;;;;5011069;28;20891;-46
2021/11/11 09:21:35;;;;;;;25.97;15.07;;;9.40;61.10;;;;;;4992403;28;20964;-46
2021/11/11 09:24:01;;;;;;;20.93;15.67;;;9.40;61.30;;;;;;5011253;28;20436;-50
2021/11/11 09:26:27;;;;;;;20.10;15.10;;;9.40;61.50;;;;;;5010774;28;20425;-48
2021/11/11 09:28:53;;;;;;;17.00;15.20;;;9.30;62.00;;;;;;5013390;28;20201;-46
2021/11/11 09:31:19;;;;;;;19.97;15.37;;;9.40;61.70;;;;;;5013940;28;21002;-49
2021/11/11 09:33:46;;;;;;;20.27;15.20;;;9.40;61.80;;;;;;5014850;28;20421;-48
2021/11/11 09:36:15;;;;;;;23.67;15.10;;;9.40;62.30;;;;;;5012762;28;20185;-50
2021/11/11 09:38:41;;;;;;;21.30;16.20;;;9.40;62.30;;;;;;5014639;28;20981;-48
2021/11/11 09:41:09;;;;;;;20.53;14.90;;;9.50;62.30;;;;;;5014197;28;20436;-49
2021/11/11 09:43:37;;;;;;;18.73;14.80;;;9.60;62.20;;;;;;5014435;28;20473;-49
2021/11/11 09:46:05;;;;;;;22.30;15.40;;;9.70;61.70;;;;;;5014220;28;20460;-46
2021/11/11 09:48:33;;;;;;;20.53;15.93;;;9.70;61.40;;;;;;5014720;28;20451;-48
2021/11/11 09:51:01;;;;;;;19.73;14.90;;;9.80;60.90;;;;;;5013645;28;20507;-49
2021/11/11 09:53:29;;;;;;;24.63;15.30;;;9.90;60.80;;;;;;5014248;28;20440;-45
2021/11/11 09:58:41;;;;;;;21.33;16.57;;;10.00;59.40;;;;;;5014412;28;20558;-45
2021/11/11 10:01:09;;;;;;;18.30;15.17;;;10.10;59.30;;;;;;5013479;28;20453;-45
2021/11/11 10:03:43;;;;;;;24.63;17.07;;;10.20;59.10;;;;;;5000158;28;20515;-45
2021/11/11 10:06:13;;;;;;;20.90;16.87;;;10.30;59.20;;;;;;5013624;28;20928;-47
2021/11/11 10:08:42;;;;;;;20.33;16.33;;;10.30;59.10;;;;;;5013994;28;20476;-48
2021/11/11 10:11:24;;;;;;;19.57;15.87;;;10.30;58.90;;;;;;5013372;28;20436;-48
2021/11/11 10:13:55;;;;;;;22.57;16.80;;;10.30;58.70;;;;;;5013894;28;20781;-50
2021/11/11 10:16:20;;;;;;;19.33;17.27;;;10.40;58.50;;;;;;5013652;28;20464;-49
2021/11/11 10:18:49;;;;;;;18.73;16.37;;;10.60;58.60;;;;;;5014177;28;20586;-45
2021/11/11 10:21:46;;;;;;;21.60;16.60;;;10.60;58.10;;;;;;5013304;28;20391;-48
2021/11/11 10:24:15;;;;;;;20.70;17.33;;;10.70;58.50;;;;;;5013696;28;20441;-45
2021/11/11 10:26:47;;;;;;;22.33;17.67;;;10.90;58.30;;;;;;5013379;28;20440;-48
2021/11/11 10:29:40;;;;;;;17.90;16.10;;;11.00;58.20;;;;;;5012207;28;20429;-46
2021/11/11 10:32:17;;;;;;;22.13;16.87;;;11.10;58.40;;;;;;5012774;28;20482;-46
2021/11/11 10:34:53;;;;;;;23.60;18.10;;;11.10;58.20;;;;;;5013861;28;20428;-47
2021/11/11 10:37:22;;;;;;;24.90;19.20;;;11.20;58.40;;;;;;5012999;28;20444;-48
2021/11/11 10:39:51;;;;;;;31.50;21.23;;;11.10;58.30;;;;;;5013240;28;20489;-48
2021/11/11 10:42:20;;;;;;;33.10;23.77;;;11.20;58.40;;;;;;5012828;28;20432;-47
2021/11/11 10:44:49;;;;;;;33.57;23.23;;;11.20;58.10;;;;;;5013879;28;20835;-47
2021/11/11 10:47:24;;;;;;;32.70;23.90;;;11.40;58.20;;;;;;5013164;28;20425;-47
2021/11/11 10:49:50;;;;;;;30.00;23.73;;;11.60;57.90;;;;;;5013355;28;20432;-47
2021/11/11 10:52:26;;;;;;;26.80;23.20;;;11.60;58.10;;;;;;5012591;28;20524;-45
2021/11/11 10:55:06;;;;;;;28.17;21.80;;;11.80;57.60;;;;;;5012943;28;20947;-46
2021/11/11 10:57:39;;;;;;;25.40;20.07;;;11.90;57.80;;;;;;5013385;28;20432;-47
2021/11/11 11:00:16;;;;;;;27.83;21.10;;;12.00;57.70;;;;;;5012648;28;20480;-46
2021/11/11 11:02:48;;;;;;;23.80;20.37;;;12.30;57.50;;;;;;5012840;28;20861;-45
2021/11/11 11:05:14;;;;;;;24.40;19.90;;;12.60;56.60;;;;;;5000474;28;20491;-46
2021/11/11 11:07:39;;;;;;;24.73;19.30;;;12.60;56.50;;;;;;5013054;28;20425;-45
2021/11/11 11:10:07;;;;;;;26.57;20.27;;;12.60;56.70;;;;;;5012660;28;20198;-46
2021/11/11 11:12:33;;;;;;;26.03;21.90;;;12.90;55.50;;;;;;5012737;28;20289;-45
2021/11/11 11:14:59;;;;;;;26.00;20.23;;;13.10;54.50;;;;;;5011638;28;20441;-46
2021/11/11 11:17:26;;;;;;;25.90;21.13;;;13.00;54.80;;;;;;5012608;28;20928;-45
2021/11/11 11:20:19;;;;;;;27.57;21.23;;;13.00;55.10;;;;;;5012886;28;20587;-46
2021/11/11 11:22:44;;;;;;;27.20;21.63;;;13.10;55.20;;;;;;5010939;28;20433;-49
2021/11/11 11:25:10;;;;;;;25.30;19.80;;;13.20;54.70;;;;;;5012327;28;20467;-45
2021/11/11 11:27:36;;;;;;;26.33;19.57;;;13.30;54.00;;;;;;5012712;28;20198;-46
2021/11/11 11:30:15;;;;;;;27.87;19.87;;;13.30;54.20;;;;;;5012574;28;20523;-45
2021/11/11 11:32:43;;;;;;;23.70;19.97;;;13.40;54.20;;;;;;5012159;28;20240;-46
2021/11/11 11:35:12;;;;;;;21.40;19.03;;;13.40;53.60;;;;;;5011820;28;20528;-45
2021/11/11 11:37:39;;;;;;;24.03;19.63;;;13.60;53.30;;;;;;5012601;28;20512;-46
2021/11/11 11:40:11;;;;;;;26.80;19.57;;;13.70;52.90;;;;;;5011708;28;20869;-45
2021/11/11 11:42:40;;;;;;;22.40;19.37;;;13.80;52.70;;;;;;5012087;28;20440;-49
2021/11/11 11:45:21;;;;;;;21.27;19.07;;;13.80;52.90;;;;;;5011955;28;20433;-46
2021/11/11 11:47:55;;;;;;;24.33;19.43;;;13.80;52.80;;;;;;5012670;28;20896;-46
2021/11/11 11:50:31;;;;;;;24.47;21.03;;;14.00;53.10;;;;;;5009763;28;20431;-45
2021/11/11 11:53:02;;;;;;;30.57;22.07;;;13.90;52.50;;;;;;5011657;28;20451;-45
2021/11/11 11:58:02;;;;;;;25.93;20.80;;;13.90;52.70;;;;;;5012263;28;20437;-45
2021/11/11 12:03:33;;;;;;;25.83;21.67;;;13.70;53.50;;;;;;5012093;28;20433;-47
2021/11/11 12:09:10;;;;;;;26.23;19.73;;;13.90;52.80;;;;;;5012258;28;20831;-46
2021/11/11 12:14:24;;;;;;;21.13;18.33;;;13.80;52.30;;;;;;5011793;28;20810;-46
2021/11/11 12:40:08;;;;;;;23.00;19.07;;;14.70;51.40;;;;;;5011646;28;20938;-50
2021/11/11 12:42:42;;;;;;;23.23;19.43;;;14.90;50.90;;;;;;5009606;28;20535;-47
2021/11/11 12:45:15;;;;;;;27.53;21.20;;;15.00;50.20;;;;;;5010775;28;20441;-49
2021/11/11 12:47:47;;;;;;;25.00;20.63;;;15.10;49.90;;;;;;5011344;28;20437;-47
2021/11/11 12:50:37;;;;;;;27.97;21.40;;;15.10;49.90;;;;;;5010882;28;20495;-45
2021/11/11 12:53:15;;;;;;;24.37;21.30;;;15.20;49.80;;;;;;5011550;28;20869;-46
2021/11/11 12:55:48;;;;;;;25.20;20.57;;;15.20;49.70;;;;;;5010830;28;20441;-49
2021/11/11 12:58:18;;;;;;;21.20;18.97;;;15.10;49.60;;;;;;5011101;28;20504;-47
2021/11/11 13:00:47;;;;;;;27.63;21.23;;;15.00;49.80;;;;;;5010451;28;20847;-46
2021/11/11 13:03:14;;;;;;;23.73;20.23;;;14.70;50.10;;;;;;5010987;28;20432;-45
2021/11/11 13:05:58;;;;;;;23.63;20.87;;;14.70;50.10;;;;;;5010778;28;20799;-46
2021/11/11 13:08:42;;;;;;;23.80;20.83;;;14.80;50.30;;;;;;5010550;28;20880;-45
2021/11/11 13:11:09;;;;;;;27.43;22.57;;;14.90;49.70;;;;;;5006915;28;20433;-47
2021/11/11 13:13:36;;;;;;;25.33;21.53;;;14.90;50.10;;;;;;5011465;28;20425;-46
2021/11/11 13:16:19;;;;;;;22.93;19.70;;;14.90;50.00;;;;;;5010727;28;20425;-46
2021/11/11 13:18:53;;;;;;;25.57;21.13;;;14.90;50.00;;;;;;5010990;28;20483;-45
2021/11/11 13:21:48;;;;;;;23.50;19.90;;;14.80;49.80;;;;;;5010274;28;20428;-45
2021/11/11 13:27:26;;;;;;;22.53;19.77;;;14.70;49.50;;;;;;5010440;28;20445;-46
2021/11/11 15:16:45;;;;;;;30.90;24.63;;;11.90;55.30;;;;;;5012535;28;20588;-46
2021/11/11 16:01:56;;;;;;;32.10;22.60;;;11.30;56.80;;;;;;5008672;28;20440;-47
2021/11/11 16:21:41;;;;;;;46.63;30.27;;;11.20;56.90;;;;;;5010939;28;20567;-45
2021/11/11 16:26:18;;;;;;;32.80;23.80;;;11.10;57.00;;;;;;5011263;28;20939;-45